Mexican Cut, RMBL, Colorado Weather observations

Data are for 10 minute period ending at time listed.
 Day   Time   Solar   Ave.   Ave.  Ave.  Vector  Max.   Baro.   Total    
  of    of     Rad.   Air    Rel.  Wind   Wind   Wind  Press.  Precip.   
Year   Day            Temp.  Hum.  Speed  Dir.   Gust                    
2016   (MST)  Kw/m2    F      %     mph   deg.    mph    mb.     in.     
-------------------------------------------------------------------------
 209   17:30   0.10   65.5    21    3.3   268     9.1   683.7    0.00 
 209   17:40   0.11   67.0    20    3.1   266     9.4   683.7    0.00 
 209   17:50   0.27   67.0    20    2.2   265     6.0   683.6    0.00 
 209   18:00   0.28   66.7    20    2.4   284     9.3   683.6    0.00 
 209   18:10   0.22   64.7    22    4.5   272    12.3   683.4    0.00 
 209   18:20   0.08   64.2    22    2.4   263     7.5   683.6    0.00 
 209   18:30   0.07   63.7    23    2.7   204    10.7   683.6    0.00 
 209   18:40   0.06   63.3    24    2.9   273     9.2   683.6    0.00 
 209   18:50   0.04   63.3    23    3.4   280    10.4   683.6    0.00 
 209   19:00   0.02   62.9    24    1.4   218     4.7   683.6    0.00 
 209   19:10   0.01   62.3    22    1.5   282     6.4   683.6    0.00 
 209   19:20   0.01   62.4    22    3.1   323     8.3   683.8    0.00 
 209   19:30   0.00   62.0    22    2.3     3     7.8   683.9    0.00 
 209   19:40   0.00   61.8    23    1.9   319     6.4   683.8    0.00 
 209   19:50   0.00   61.6    24    2.5   323     5.0   683.9    0.00 
 209   20:00   0.00   60.4    26    0.2   339     1.4   684.0    0.00 
 209   20:10   0.00   59.1    27    1.0   228     2.5   683.8    0.00 
 209   20:20   0.00   58.8    27    0.5   250     2.1   684.0    0.00 
 209   20:30   0.00   58.5    28    0.8   281     2.8   684.1    0.00 
 209   20:40   0.00   58.5    27    1.1   294     3.1   684.1    0.00 
 209   20:50   0.00   57.6    27    0.6   234     2.3   684.1    0.00 
 209   21:00   0.00   58.2    26    1.8   272     4.5   684.2    0.00 
 209   21:10   0.00   59.5    25    1.6   282     4.0   684.1    0.00 
 209   21:20   0.00   59.5    24    1.0   294     5.6   684.3    0.00 
 209   21:30   0.00   57.8    26    0.8   204     2.3   684.3    0.00 
 209   21:40   0.00   56.6    27    0.6   271     2.4   684.2    0.00 
 209   21:50   0.00   55.9    27    0.4   238     1.7   684.2    0.00 
 209   22:00   0.00   55.5    27    1.0   217     2.2   684.2    0.00 
 209   22:10   0.00   54.6    28    1.4   199     2.6   684.1    0.00 
 209   22:20   0.00   54.0    30    1.1   214     2.9   684.2    0.00 
 209   22:30   0.00   53.8    30    1.3   213     2.3   684.1    0.00 
 209   22:40   0.00   53.8    31    2.2   207     3.3   684.0    0.00 
 209   22:50   0.00   53.6    32    2.0   193     2.9   684.0    0.00 
 209   23:00   0.00   52.8    32    1.5   194     2.4   684.0    0.00 
 209   23:10   0.00   52.8    32    2.4   187     4.6   683.9    0.00 
 209   23:20   0.00   53.3    31    2.3   197     3.8   683.8    0.00 
 209   23:30   0.00   53.4    31    3.1   194     4.7   683.9    0.00 
 209   23:40   0.00   54.1    30    3.3   199     4.2   683.9    0.00 
 209   23:50   0.00   54.1    30    3.9   194     5.3   683.8    0.00 
 210    0:00   0.00   54.3    28    3.8   191     5.8   683.8    0.00 
 210    0:10   0.00   54.4    27    3.3   200     4.8   683.7    0.00 
 210    0:20   0.00   54.3    27    3.6   194     4.8   683.7    0.00 
 210    0:30   0.00   53.9    28    3.0   189     4.7   683.6    0.00 
 210    0:40   0.00   52.9    28    1.8   156     2.9   683.7    0.00 
 210    0:50   0.00   52.0    29    1.8   165     3.9   683.6    0.00 
 210    1:00   0.00   52.0    28    1.8   182     3.6   683.5    0.00 
 210    1:10   0.00   52.1    27    2.1   176     4.4   683.5    0.00 
 210    1:20   0.00   52.6    27    1.3   200     2.1   683.5    0.00 
 210    1:30   0.00   52.4    26    1.9   201     2.9   683.5    0.00 
 210    1:40   0.00   52.3    25    1.3   212     2.0   683.4    0.00 
 210    1:50   0.00   52.3    25    0.6   230     3.1   683.4    0.00 
 210    2:00   0.00   53.1    24    2.1   182     4.1   683.4    0.00 
 210    2:10   0.00   54.3    23    1.2   208     3.8   683.4    0.00 
 210    2:20   0.00   56.4    20    2.4   243     7.3   683.4    0.00 
 210    2:30   0.00   58.2    20    2.1   303     6.2   683.3    0.00 
 210    2:40   0.00   56.6    21    0.7   202     4.5   683.4    0.00 
 210    2:50   0.00   55.0    23    2.0   205     5.8   683.3    0.00 
 210    3:00   0.00   54.6    24    1.4   256     2.6   683.4    0.00 
 210    3:10   0.00   54.0    24    0.7   255     2.9   683.4    0.00 
 210    3:20   0.00   53.8    24    0.7   207     1.4   683.3    0.00 
 210    3:30   0.00   54.0    23    0.9   219     3.4   683.3    0.00 
 210    3:40   0.00   54.7    23    0.5   297     1.9   683.4    0.00 
 210    3:50   0.00   54.2    24    1.3   225     3.9   683.4    0.00 
 210    4:00   0.00   54.1    24    1.1   250     4.8   683.4    0.00 
 210    4:10   0.00   54.5    24    0.7   197     2.4   683.4    0.00 
 210    4:20   0.00   52.9    24    0.8   221     1.9   683.4    0.00 
 210    4:30   0.00   52.3    26    0.8   232     2.4   683.4    0.00 
 210    4:40   0.00   53.3    26    1.6   305     4.7   683.3    0.00 
 210    4:50   0.00   53.4    25    0.6   225     1.8   683.3    0.00 
 210    5:00   0.00   52.7    26    1.5   199     3.9   683.3    0.00 
 210    5:10   0.00   53.4    25    1.0   206     3.9   683.3    0.00 
 210    5:20   0.01   52.9    26    0.8   188     2.0   683.2    0.00 
 210    5:30   0.01   52.0    27    1.4   179     3.0   683.3    0.00 
 210    5:40   0.03   51.7    29    1.3   214     2.3   683.5    0.00 
 210    5:50   0.04   52.2    28    0.6   225     1.8   683.5    0.00 
 210    6:00   0.11   54.6    25    0.9   206     3.0   683.5    0.00 
 210    6:10   0.15   58.5    23    0.6    78     3.6   683.6    0.00 
 210    6:20   0.18   61.5    21    0.9    76     2.9   683.5    0.00 
 210    6:30   0.22   61.8    19    3.0   359     9.9   683.5    0.00 
 210    6:40   0.26   61.2    18    4.8   335    11.6   683.6    0.00 
 210    6:50   0.29   61.3    20    3.7   349    10.7   683.7    0.00 
 210    7:00   0.33   61.6    17    5.2   312    11.5   683.7    0.00 
 210    7:10   0.36   62.0    17    4.9   318    13.9   683.7    0.00 
 210    7:20   0.40   62.1    17    4.9   306    14.2   683.8    0.00 
 210    7:30   0.44   62.2    16    5.1   320    14.2   683.9    0.00 
 210    7:40   0.47   62.8    16    4.1   315    11.9   683.9    0.00 
 210    7:50   0.51   62.4    16    6.9   308    13.2   683.9    0.00 
 210    8:00   0.55   62.4    15    5.8   312    15.6   683.9    0.00 
 210    8:10   0.58   63.1    16    3.9   316    11.8   683.8    0.00 
 210    8:20   0.62   63.8    16    4.7   332    12.0   683.9    0.00 
 210    8:30   0.65   63.9    15    3.8   325     8.7   683.9    0.00 
 210    8:40   0.68   64.4    16    4.2   320     9.9   683.9    0.00 
 210    8:50   0.71   64.1    15    4.9   329    14.5   683.9    0.00 
 210    9:00   0.74   63.7    15    4.4   300    11.3   683.7    0.00 
 210    9:10   0.77   63.9    15    4.6   314    13.2   683.7    0.00 
 210    9:20   0.80   64.6    14    4.3   319    12.0   683.8    0.00 
 210    9:30   0.83   64.4    14    5.9   334    13.3   683.8    0.00 
 210    9:40   0.85   64.3    15    5.7   326    12.3   683.8    0.00 
 210    9:50   0.88   64.1    15    5.8   294    13.2   683.8    0.00 
 210   10:00   0.90   64.5    15    5.6   300    15.1   683.9    0.00 
 210   10:10   0.92   65.2    15    5.2   338    15.4   683.9    0.00 
 210   10:20   0.94   65.2    15    6.0   320    18.3   684.0    0.00 
 210   10:30   0.96   64.8    15    5.2   315    12.6   683.9    0.00 
 210   10:40   0.98   65.2    15    5.6   297    18.1   684.0    0.00 
 210   10:50   1.00   65.2    14    6.6   342    14.4   683.9    0.00 
 210   11:00   1.02   65.8    15    4.7   330    13.7   684.0    0.00 
 210   11:10   1.03   66.3    15    5.3   334    11.9   683.9    0.00 
 210   11:20   1.05   66.1    15    3.1   244    11.7   683.9    0.00 
 210   11:30   1.06   66.6    15    3.9   280    14.9   683.8    0.00 
 210   11:40   1.07   65.8    16    5.9   263    14.2   683.8    0.00 
 210   11:50   1.06   66.1    16    4.4   282    13.4   683.9    0.00 
 210   12:00   1.13   67.1    15    3.9   238    17.4   683.8    0.00 
 210   12:10   0.93   67.4    15    3.5   261     8.7   683.8    0.00 
 210   12:20   0.87   66.7    15    4.0   240    12.3   683.8    0.00 
 210   12:30   0.86   66.8    16    4.2   357    12.6   683.8    0.00 
 210   12:40   1.10   67.0    15    3.5   325    11.0   683.7    0.00 
 210   12:50   0.88   66.6    15    7.0   316    18.9   683.7    0.00 
 210   13:00   0.88   65.8    16    7.5   317    19.0   683.6    0.00 
 210   13:10   0.61   66.4    17    4.4   334    16.1   683.6    0.00 
 210   13:20   0.69   66.6    18    5.1   342    18.1   683.6    0.00 
 210   13:30   0.42   66.1    18    4.2   302    10.9   683.7    0.00 
 210   13:40   0.77   65.8    18    6.0   337    14.8   683.7    0.00 
 210   13:50   1.17   67.0    18    7.7   335    20.2   683.6    0.00 
 210   14:00   1.06   66.8    17    7.2   342    24.0   683.6    0.00 
 210   14:10   0.38   65.8    17    8.7   329    27.5   683.6    0.00 
 210   14:20   0.32   64.4    18    5.9   329    14.7   683.6    0.00 
 210   14:30   0.54   64.9    18    7.0   342    16.3   683.4    0.00 
 210   14:40   0.79   65.7    18    4.9   355    13.1   683.3    0.00 
 210   14:50   0.99   67.8    18    4.3     8    12.7   683.1    0.00 
 210   15:00   0.85   68.4    16    3.9   358    14.5   683.0    0.00 
 210   15:10   0.92   68.6    16    3.5   265    10.7   682.9    0.00 
 210   15:20   0.89   69.1    16    5.0   358    17.2   682.8    0.00 
 210   15:30   0.85   68.8    15    4.4   334    11.0   682.7    0.00 
 210   15:40   0.65   68.3    15    5.8   349    17.1   682.7    0.00 
 210   15:50   0.32   66.3    17    6.0   348    15.5   682.7    0.00 
 210   16:00   0.47   66.0    17    3.8   339    12.9   682.8    0.00 
 210   16:10   0.79   65.5    19    8.3   353    28.7   683.0    0.00 
 210   16:20   0.64   65.3    22    3.7    14    12.0   683.0    0.00 
 210   16:30   0.56   65.5    22    3.2   358     9.1   682.9    0.00 
 210   16:40   0.52   65.9    22    1.3    12     5.8   682.9    0.00 
 210   16:50   0.43   66.2    21    2.8   357     7.4   682.9    0.00 
 210   17:00   0.29   65.8    21    2.3   306     7.7   683.0    0.00 
 210   17:10   0.42   66.0    20    3.6   343     9.5   682.9    0.00 
 210   17:20   0.36   66.9    18    2.8     5    16.1   683.0    0.00 

Return to Mexican Cut, RMBL, Colorado graphs page.


Western Regional Climate Center,wrcc@dri.edu